Route Details

Aircraft Information
Group: North America Fleet
Types: B738, B752, B762, B763
Route Data
Distance: 833nm
Duration: 2h 35m
Origin METAR: KSEA 160053Z 31004KT 10SM FEW050 FEW250 28/12 A3001 RMK AO2 SLP165 T02830122
Dest. METAR: KONT 152353Z 25011G18KT 10SM FEW120 FEW180 36/13 A2978 RMK AO2 SLP062 CB DSNT E AND SE T03560133 10367 20311 56016
Freight Data
(for Aug 16, 2022)
Load Factor:
59%
Manifested Cargo: 59,648lbs
Financial History
Total Freight: 90,611lbs
Average Load: 0lbs/flt
Fuel Used: 13,291lbs
Avg. Fuel Used: 0lbs/flt
Fuel Expense: $8,639
Avg. Fuel Expense: $0
Avg. Fuel Cost: $0/lbs
Total Gross Income: $222,903
Pilot Pay: $119
Total Expenses: $44,055
Total Revenue: $169,564
Average Revenue: $0

Capitol Logistics 408




KSEA
Seattle-Tacoma International Airport
Seattle, Washington
KONT
Ontario International Airport
Ontario, California

Activity Log

Date Flight Route Aircraft Duration
07/15/2022 CPX408 SUMMA2 SUMMA DCT PAAGE Q11 PUSHH DCT TTE ZIGGY7 B763 2h 24m